Flight Track Log - Related Links

Times and Time Zones

All times are in EDT time to prevent confusion due to time zone crossing. See the SWA378 flight status page for this flight to view local times or setup timezone preferences in your user account.

Time Position Orientation Groundspeed Altitude Reporting Facility
EDT Latitude Longitude Course Direction KTS MPH feet Rate Location/Type
Wed 10:15:15 PM 39.1114 -76.6056 270° West 176 203 3,800  Level Washington Center
Wed 10:16:16 PM 39.1244 -76.5119 80° East 197 227 7,000 3,350 Climbing Washington Center
Wed 10:17:15 PM 39.1314 -76.4103 85° East 232 267 10,500 3,681 Climbing Washington Center
Wed 10:18:15 PM 39.1428 -76.2900 83° East 279 321 14,300 3,521 Climbing Washington Center
Wed 10:19:16 PM 39.1600 -76.1672 80° East 325 374 17,600 2,975 Climbing Washington Center
Wed 10:20:00 PM 39.1500 -76.5392 270° West  Level FlightAware Approximate
Wed 10:20:16 PM 39.1750 -76.0361 82° East 340 391 20,300  Level Washington Center
Wed 10:21:16 PM 39.2233 -75.9158 63° Northeast 359 413 23,000 2,644 Climbing Washington Center
Wed 10:22:14 PM 39.2967 -75.8114 48° Northeast 367 422 25,500 2,874 Climbing Washington Center
Wed 10:23:15 PM 39.3656 -75.7069 50° Northeast 381 438 28,700 1,721 Climbing Washington Center
Wed 10:24:16 PM 39.4364 -75.6050 48° Northeast 381 438 29,000 149 Climbing Washington Center
Wed 10:25:16 PM 39.5094 -75.5000 48° Northeast 381 438 29,000  Level Washington Center
Wed 10:26:14 PM 39.5842 -75.3842 50° Northeast 392 451 29,000  Level Washington Center
Wed 10:27:15 PM 39.6611 -75.2708 49° Northeast 411 473 29,000  Level Washington Center
Wed 10:28:15 PM 39.7419 -75.1569 47° Northeast 416 479 29,000  Level Washington Center
Wed 10:29:17 PM 39.8236 -75.0389 48° Northeast 410 472 29,000  Level New York Center
Wed 10:30:18 PM 39.9028 -74.9244 48° Northeast 410 472 29,000  Level New York Center
Wed 10:31:16 PM 39.9817 -74.8128 47° Northeast 416 479 29,000  Level New York Center
Wed 10:32:17 PM 40.0539 -74.7139 46° Northeast 422 486 29,000  Level New York Center
Wed 10:33:16 PM 40.1514 -74.6000 42° Northeast 417 480 29,000  Level New York Center
Wed 10:34:16 PM 40.2294 -74.5117 41° Northeast 417 480 29,000  Level New York Center
Wed 10:35:17 PM 40.3222 -74.4081 40° Northeast 417 480 29,000  Level New York Center
Wed 10:36:50 PM 40.4581 -74.2483 42° Northeast 419 482 29,000  Level Boston Center
Wed 10:37:50 PM 40.5431 -74.1469 42° Northeast 419 482 29,000 -318 Level Boston Center
Wed 10:39:02 PM 40.6300 -74.0481 41° Northeast 413 475 28,300 -1,591 Descending Boston Center
Wed 10:40:02 PM 40.7231 -73.9436 40° Northeast 387 445 25,500 -2,150 Descending Boston Center
Wed 10:41:02 PM 40.7994 -73.8547 41° Northeast 368 423 24,000 -750 Descending Boston Center
Wed 10:42:02 PM 40.8733 -73.7631 43° Northeast 363 418 24,000 -100 Level Boston Center
Wed 10:43:02 PM 40.9536 -73.6631 43° Northeast 374 430 23,800 -500 Descending Boston Center
Wed 10:44:02 PM 41.0731 -73.6047 20° North 399 459 23,000 -550 Descending Boston Center
Wed 10:45:02 PM 41.1819 -73.5489 21° North 404 465 22,700 -700 Descending Boston Center
Wed 10:46:02 PM 41.3008 -73.5453 North 404 465 21,600 -1,050 Descending Boston Center
Wed 10:47:02 PM 41.4153 -73.5667 352° North 410 472 20,600 -1,050 Descending Boston Center
Wed 10:48:02 PM 41.5275 -73.5853 353° North 405 466 19,500 -1,000 Descending Boston Center
Wed 10:49:02 PM 41.6400 -73.6067 352° North 405 466 18,600 -650 Descending Boston Center
Wed 10:50:02 PM 41.7397 -73.6225 353° North 405 466 18,200 -750 Descending Boston Center
Wed 10:51:02 PM 41.8625 -73.6442 353° North 410 472 17,100 -1,263 Descending Boston Center
Wed 10:51:18 PM 41.8939 -73.6478 355° North 409 471 16,600 -2,471 Descending Boston Center
Wed 10:51:36 PM 41.9292 -73.6567 349° North 402 463 15,700 -2,591 Descending Boston Center
Wed 10:52:02 PM 41.9583 -73.6600 355° North 402 463 14,700 -3,246 Descending Boston Center
Wed 10:52:37 PM 42.0331 -73.6728 353° North 378 435 12,400 -3,100 Descending Boston Center
Wed 10:53:02 PM 42.0519 -73.6758 353° North 381 438 11,600 -1,279 Descending Boston Center
Wed 10:53:38 PM 42.1331 -73.6886 353° North 358 412 11,100 -600 Descending Boston Center
Wed 10:54:02 PM 42.1600 -73.6975 346° North 367 422 11,000 -200 Descending Boston Center
Wed 10:54:38 PM 42.2244 -73.7044 355° North 324 373 10,900 -371 Descending Boston Center
Wed 10:55:39 PM 42.3081 -73.6978 North 287 330 10,400 -1,033 Descending Boston Center
Wed 10:56:40 PM 42.3853 -73.6908 North 271 312 8,800 -1,587 Descending Boston Center
Wed 10:57:40 PM 42.4686 -73.6842 North 273 314 7,200 -1,488 Descending Boston Center
Wed 10:58:41 PM 42.5417 -73.6800 North 267 307 5,800 -1,537 Descending Boston Center
Wed 10:59:41 PM 42.6147 -73.6758 North 268 308 4,100 -1,388 Descending Boston Center
Wed 11:00:42 PM 42.6917 -73.6689 North 272 313 3,000 -590 Descending Boston Center
Wed 11:01:43 PM 42.7606 -73.6675 North 249 287 2,900 -298 Descending Boston Center
Wed 11:02:43 PM 42.8017 -73.7164 319° Northwest 190 219 2,400 -645 Descending Boston Center
Wed 11:03:44 PM 42.8094 -73.7786 280° West 139 160 1,600 -744 Descending Boston Center
Wed 11:04:44 PM 42.7881 -73.8094 227° Southwest 111 128 900 -700 Descending Boston Center

Login

Don't have an account? Register now (free) for customized features, flight alerts, and more!